Fort Madison, IA

4:04 AM CST on February 14, 2016 (GMT -0600)
Denmark, Iowa | | Change Station
CLOSE
Current Station
Personal Weather Station
Location: Fort Madison, IA
Elevation: 692 ft
Nearby Weather Stations
Active Advisory: Winter Weather Advisory

Elev 692 ft 40.71 °N, 91.33 °W | Updated 14 seconds ago

Overcast
Overcast
15.6 °F
Feels Like 2 °F
N
13.0
Wind Variable Wind from ENE
Gusts 14.0 mph

Today
High -- | Low -- °F
--% Chance of Precip.
Yesterday
High -- | Low -- °F
Precip. -- in
Pressure 30.26 in
Visibility 10.0 miles
Clouds Scattered Clouds 1200 ft
Scattered Clouds 2700 ft
Overcast 5500 ft
Windchill 2 °F
Dew Point 13 °F
Humidity 90%
Rainfall 0.00 in
Snow Depth Not available.
7:01 AM 5:38 PM
Waxing Crescent, 40% visible
METAR KFSW 140955Z AUTO 11013KT 10SM SCT012 SCT027 OVC055 M09/M11 A3026 RMK AO2
Pressure 30.26 in
Visibility 10.0 miles
Clouds Scattered Clouds 1200 ft
Scattered Clouds 2700 ft
Overcast 5500 ft
Windchill 2 °F
Dew Point 13 °F
Humidity 90%
Rainfall 0.00 in
Snow Depth Not available.
7:01 AM 5:38 PM
Waxing Crescent, 40% visible
METAR KFSW 140955Z AUTO 11013KT 10SM SCT012 SCT027 OVC055 M09/M11 A3026 RMK AO2

10-Day Weather Forecast

Almanac

Astronomy

Feb. 14, 2016 Rise Set
Actual Time
Civil Twilight
Nautical Twilight
Astronomical Twilight
Moon
Length of Visible Light
Length of Day
Tomorrow will be .
, % of the Moon is Illuminated

Today's Extremes

State Highs State Lows

Community

WunderPhotos

Upload Photos

1,892,761 photos uploaded!

WunderBlog® & News

Nearby

Air Quality

  Air Quality AQ Index Pollutant
Not available.

Snow Depth

Station Depth Elevation

Earthquake Activity

City Distance Mag. Time & Date
Minimum magnitude displayed is 2.5.

Coastal Water Temperatures

Place Temperature

Stations

Nearby Weather Stations

Station Location Temp. Windchill Dew Point Humidity Wind Precip. Elev Updated Type
                   

Watches & Warnings

Winter Weather Advisory
Issued: 3:32 AM CST Feb. 14, 2016 – National Weather Service

... Winter Weather Advisory remains in effect until 6 PM CST this
evening...

* timing... through much of the day.

* Snow accumulations... 2 to 5 inches.

* Wind... southeast 10 to 15 mph with gusts up to 25 mph this morning.

* Visibilities... less than a mile in the heavier snow at times.

* Impacts... snow covered and hazardous roads and low visibility
in heavier snowfall. Drifting snow possible this morning.

Precautionary/preparedness actions...

A Winter Weather Advisory for snow means that periods of snow
will cause travel difficulties. Be prepared for slick... snow
covered roads and limited visibilities... and be careful while
driving.